Time;durP1;ratioP1;P1;durP2;ratioP2;P2;SDS_P1;SDS_P2;PMS_P1;PMS_P2;Temp;Humidity;BMP_temperature;BMP_pressure;BME280_temperature;BME280_humidity;BME280_pressure;Samples;Min_cycle;Max_cycle;Signal;HPM_P1;HPM_P2
2023/04/23 00:01:15;;;;;;;10.05;7.53;;;;;;;5.20;100.00;93055.94;5088377;28;20064;-73
2023/04/23 00:03:43;;;;;;;12.07;8.05;;;;;;;5.17;100.00;93063.16;5088542;28;20094;-73
2023/04/23 00:06:10;;;;;;;9.38;7.15;;;;;;;5.17;100.00;93053.75;5088635;28;20084;-73
2023/04/23 00:08:39;;;;;;;9.18;7.00;;;;;;;5.09;100.00;93048.75;5088174;28;20044;-73
2023/04/23 00:11:07;;;;;;;13.32;7.97;;;;;;;5.15;100.00;93052.38;5077154;28;20049;-73
2023/04/23 00:13:36;;;;;;;9.77;7.00;;;;;;;5.18;100.00;93057.88;5086564;28;20040;-73
2023/04/23 00:16:03;;;;;;;8.35;6.47;;;;;;;5.22;100.00;93050.66;5087912;28;20051;-73
2023/04/23 00:18:30;;;;;;;8.68;6.55;;;;;;;5.16;100.00;93044.56;5088266;28;20136;-73
2023/04/23 00:20:57;;;;;;;8.95;6.32;;;;;;;5.15;100.00;93048.06;5088869;28;20044;-73
2023/04/23 00:23:24;;;;;;;12.35;9.32;;;;;;;5.13;100.00;93044.91;5088249;28;20048;-73
2023/04/23 00:25:50;;;;;;;12.68;9.30;;;;;;;4.98;100.00;93032.22;5087880;28;20044;-73
2023/04/23 00:28:17;;;;;;;13.65;10.38;;;;;;;5.01;100.00;93057.31;5088367;28;20088;-73
2023/04/23 00:30:45;;;;;;;12.57;9.63;;;;;;;4.90;100.00;93055.22;5087889;28;20048;-73
2023/04/23 00:33:12;;;;;;;10.70;8.07;;;;;;;4.79;100.00;93042.00;5087831;28;20052;-73
2023/04/23 00:35:39;;;;;;;9.45;6.97;;;;;;;4.76;100.00;93046.63;5088166;28;20442;-73
2023/04/23 00:38:05;;;;;;;8.90;7.05;;;;;;;4.71;100.00;93044.63;5087943;28;20136;-73
2023/04/23 00:40:32;;;;;;;9.02;7.05;;;;;;;4.73;100.00;93045.25;5087873;28;20411;-72
2023/04/23 00:43:00;;;;;;;9.68;7.00;;;;;;;4.74;100.00;93046.03;5087691;28;20101;-72
2023/04/23 00:45:27;;;;;;;10.82;7.00;;;;;;;4.73;100.00;93047.00;5088134;28;20044;-73
2023/04/23 00:47:56;;;;;;;9.10;5.55;;;;;;;4.68;100.00;93050.84;5087382;28;20086;-73
2023/04/23 00:50:23;;;;;;;9.60;6.97;;;;;;;4.73;100.00;93047.00;5087852;28;20591;-73
2023/04/23 00:52:49;;;;;;;11.55;7.13;;;;;;;4.69;100.00;93038.94;5087677;28;20435;-73
2023/04/23 00:55:19;;;;;;;10.30;7.07;;;;;;;4.61;100.00;93046.66;5088140;28;20052;-73
2023/04/23 00:57:46;;;;;;;9.43;6.38;;;;;;;4.53;100.00;93050.06;5087449;28;20149;-73
2023/04/23 01:00:14;;;;;;;10.00;6.70;;;;;;;4.14;100.00;92996.00;5087512;28;20040;-73
2023/04/23 01:02:43;;;;;;;11.18;7.35;;;;;;;4.40;100.00;93043.09;5075158;28;20040;-72
2023/04/23 01:05:13;;;;;;;13.45;9.02;;;;;;;4.38;100.00;93050.09;5087098;28;20079;-73
2023/04/23 01:07:40;;;;;;;11.02;7.97;;;;;;;4.34;100.00;93044.56;5087721;28;20040;-72
2023/04/23 01:10:08;;;;;;;11.43;8.00;;;;;;;4.34;100.00;93046.31;5085048;28;20350;-73
2023/04/23 01:12:35;;;;;;;14.75;9.25;;;;;;;4.41;100.00;93044.66;5075539;28;20045;-73
2023/04/23 01:15:02;;;;;;;13.35;9.48;;;;;;;4.46;100.00;93039.84;5085382;28;20109;-72
2023/04/23 01:17:29;;;;;;;10.82;8.55;;;;;;;4.43;100.00;93042.72;5087684;28;20063;-72
2023/04/23 01:19:56;;;;;;;12.55;7.90;;;;;;;4.53;100.00;93050.88;5087025;28;20541;-72
2023/04/23 01:22:24;;;;;;;9.50;7.60;;;;;;;4.53;100.00;93047.53;5087838;28;20043;-72
2023/04/23 01:24:52;;;;;;;10.77;7.80;;;;;;;4.53;100.00;93045.78;5087051;28;20074;-72
2023/04/23 01:27:19;;;;;;;12.35;8.50;;;;;;;4.53;100.00;93048.34;5087244;28;20086;-72
2023/04/23 01:29:47;;;;;;;10.48;8.35;;;;;;;4.57;100.00;93053.06;5087376;28;20051;-72
2023/04/23 01:32:15;;;;;;;13.48;8.20;;;;;;;4.55;100.00;93050.69;5077491;28;20052;-73
2023/04/23 01:34:42;;;;;;;11.45;8.02;;;;;;;4.55;100.00;93048.16;5071062;28;20117;-73
2023/04/23 01:37:10;;;;;;;12.00;8.50;;;;;;;4.53;100.00;93047.53;5087239;28;20097;-73
2023/04/23 01:39:38;;;;;;;11.95;8.75;;;;;;;4.52;100.00;93048.50;5086555;28;20046;-73
2023/04/23 01:42:06;;;;;;;11.50;9.40;;;;;;;4.45;100.00;93048.44;5086772;28;20044;-73
2023/04/23 01:44:33;;;;;;;15.38;11.30;;;;;;;4.36;100.00;93041.84;5087279;28;20493;-72
2023/04/23 01:47:00;;;;;;;14.68;10.10;;;;;;;4.39;100.00;93052.44;5087376;28;20052;-73
2023/04/23 01:49:26;;;;;;;12.48;10.48;;;;;;;4.37;100.00;93056.13;5087398;28;20040;-73
2023/04/23 01:51:53;;;;;;;13.60;11.48;;;;;;;4.31;100.00;93050.00;5087221;28;20470;-73
2023/04/23 01:54:20;;;;;;;15.73;12.30;;;;;;;4.30;100.00;93042.56;5087248;28;20048;-73
2023/04/23 01:56:48;;;;;;;14.48;11.25;;;;;;;4.30;100.00;93050.19;5086618;28;20561;-73
2023/04/23 01:59:15;;;;;;;16.23;11.52;;;;;;;4.30;100.00;93055.25;5087148;28;20074;-73
2023/04/23 02:01:44;;;;;;;14.25;10.95;;;;;;;4.28;100.00;93051.16;5086827;28;20492;-73
2023/04/23 02:04:11;;;;;;;15.57;11.05;;;;;;;4.30;100.00;93058.59;5086767;28;20045;-73
2023/04/23 02:06:38;;;;;;;14.60;10.40;;;;;;;4.28;100.00;93060.53;5087046;28;20090;-73
2023/04/23 02:09:05;;;;;;;14.15;10.90;;;;;;;4.27;100.00;93058.94;5080152;28;20504;-73
2023/04/23 02:11:32;;;;;;;13.15;10.57;;;;;;;4.28;100.00;93061.31;5079819;28;20411;-73
2023/04/23 02:14:01;;;;;;;15.65;11.20;;;;;;;4.22;100.00;93062.00;5087283;28;20051;-73
2023/04/23 02:16:28;;;;;;;16.60;10.93;;;;;;;4.20;100.00;93053.75;5086799;28;20048;-73
2023/04/23 02:18:55;;;;;;;15.45;10.43;;;;;;;4.16;100.00;93052.53;5087051;28;20074;-73
2023/04/23 02:21:23;;;;;;;12.38;9.18;;;;;;;4.19;100.00;93056.47;5086501;28;20044;-73
2023/04/23 02:23:49;;;;;;;17.92;9.45;;;;;;;4.12;100.00;93056.41;5086633;28;20044;-73
2023/04/23 02:26:17;;;;;;;14.07;9.20;;;;;;;4.04;100.00;93051.38;5085617;28;20466;-73
2023/04/23 02:28:44;;;;;;;11.18;8.68;;;;;;;4.03;100.00;93065.03;5074808;28;20047;-72
2023/04/23 02:31:12;;;;;;;13.43;9.13;;;;;;;4.02;100.00;93061.69;5086517;28;20416;-72
2023/04/23 02:33:40;;;;;;;11.82;8.68;;;;;;;3.98;100.00;93056.19;5086954;28;20044;-72
2023/04/23 02:38:51;;;;;;;13.85;9.15;;;;;;;3.89;100.00;93054.66;5086276;28;20051;-72
2023/04/23 02:41:18;;;;;;;15.00;9.18;;;;;;;3.90;100.00;93056.28;5086530;28;20474;-72
2023/04/23 02:43:44;;;;;;;11.90;8.75;;;;;;;3.76;100.00;93041.75;5086560;28;20040;-73
2023/04/23 02:46:12;;;;;;;12.02;9.75;;;;;;;3.72;100.00;93052.28;5086483;28;20044;-73
2023/04/23 02:48:41;;;;;;;15.02;9.88;;;;;;;3.78;100.00;93058.41;5086604;28;20450;-72
2023/04/23 02:51:10;;;;;;;12.73;10.27;;;;;;;3.75;100.00;93056.22;5075042;28;20109;-72
2023/04/23 02:53:37;;;;;;;12.75;9.43;;;;;;;3.76;100.00;93059.56;5089560;28;20081;-72
2023/04/23 02:56:04;;;;;;;11.13;7.65;;;;;;;3.63;100.00;93048.22;5089620;28;20056;-72
2023/04/23 02:58:31;;;;;;;9.85;7.40;;;;;;;3.60;100.00;93062.06;5090111;28;20052;-72
2023/04/23 03:00:58;;;;;;;11.80;7.70;;;;;;;3.60;100.00;93066.34;5090227;28;20055;-72
2023/04/23 03:03:30;;;;;;;11.60;7.32;;;;;;;3.59;100.00;93065.56;5090128;28;20454;-72
2023/04/23 03:05:57;;;;;;;7.82;6.97;;;;;;;3.59;100.00;93069.84;5077351;28;20439;-73
2023/04/23 03:08:24;;;;;;;10.80;7.30;;;;;;;3.59;100.00;93069.84;5089889;28;20047;-72
2023/04/23 03:10:51;;;;;;;11.73;7.43;;;;;;;3.61;100.00;93070.44;5089633;28;20451;-72
2023/04/23 03:13:17;;;;;;;8.27;6.28;;;;;;;3.63;100.00;93072.81;5090046;28;20048;-72
2023/04/23 03:15:44;;;;;;;10.02;6.65;;;;;;;3.63;100.00;93070.28;5090103;28;20036;-72
2023/04/23 03:18:11;;;;;;;10.13;6.88;;;;;;;3.60;100.00;93079.84;5089582;28;20055;-73
2023/04/23 03:20:39;;;;;;;8.60;6.93;;;;;;;3.67;100.00;93074.06;5089664;28;20040;-73
2023/04/23 03:23:06;;;;;;;10.70;6.82;;;;;;;3.73;100.00;93069.09;5087747;28;20058;-73
2023/04/23 03:25:33;;;;;;;10.90;7.38;;;;;;;3.71;100.00;93075.31;5077977;28;20052;-73
2023/04/23 03:28:00;;;;;;;10.95;7.07;;;;;;;3.71;100.00;93073.53;5089230;28;20048;-73
2023/04/23 03:30:27;;;;;;;9.65;6.53;;;;;;;3.75;100.00;93071.44;5090143;28;20108;-73
2023/04/23 03:32:56;;;;;;;8.20;6.28;;;;;;;3.74;100.00;93072.41;5089240;28;20501;-72
2023/04/23 03:35:23;;;;;;;8.68;6.47;;;;;;;3.73;100.00;93076.72;5089461;28;20146;-72
2023/04/23 03:37:51;;;;;;;7.68;6.00;;;;;;;3.71;100.00;93073.53;5088666;28;20084;-72
2023/04/23 03:40:18;;;;;;;7.85;5.88;;;;;;;3.73;100.00;93063.22;5089034;28;20052;-72
2023/04/23 03:42:44;;;;;;;10.10;6.68;;;;;;;3.71;100.00;93076.09;5075425;28;20082;-72
2023/04/23 03:45:12;;;;;;;10.20;6.18;;;;;;;3.66;100.00;93072.50;5088616;28;20152;-72
2023/04/23 03:47:39;;;;;;;8.70;5.90;;;;;;;3.67;100.00;93077.41;5077022;28;20044;-72
2023/04/23 03:50:07;;;;;;;13.73;7.18;;;;;;;3.55;100.00;93066.84;5088779;28;20059;-72
2023/04/23 03:52:33;;;;;;;10.75;6.72;;;;;;;3.56;100.00;93060.03;5089028;28;20048;-72
2023/04/23 03:55:02;;;;;;;8.93;6.82;;;;;;;3.66;100.00;93078.34;5089557;28;20097;-72
2023/04/23 03:57:28;;;;;;;21.80;9.23;;;;;;;3.67;100.00;93079.94;5088895;28;20509;-72
2023/04/23 03:59:55;;;;;;;14.73;7.78;;;;;;;3.65;100.00;93081.09;5089149;28;20624;-72
2023/04/23 04:02:22;;;;;;;10.98;8.15;;;;;;;3.52;100.00;93064.63;5088684;28;20051;-72
2023/04/23 04:04:50;;;;;;;11.18;8.23;;;;;;;3.69;100.00;93085.63;5089345;28;20441;-72
2023/04/23 04:07:17;;;;;;;14.85;8.75;;;;;;;3.65;100.00;93073.47;5087825;28;20047;-73
2023/04/23 04:09:45;;;;;;;12.65;8.52;;;;;;;3.77;100.00;93082.25;5088983;28;20047;-73
2023/04/23 04:12:13;;;;;;;11.07;7.47;;;;;;;3.80;100.00;93078.59;5074327;28;20259;-72
2023/04/23 04:14:40;;;;;;;11.13;8.18;;;;;;;3.81;100.00;93073.34;5088710;28;20097;-72
2023/04/23 04:17:07;;;;;;;13.23;8.40;;;;;;;3.88;100.00;93076.75;5088041;28;20462;-72
2023/04/23 04:19:34;;;;;;;10.50;7.65;;;;;;;3.95;100.00;93081.97;5088551;28;20093;-72
2023/04/23 04:22:02;;;;;;;11.07;7.97;;;;;;;4.04;100.00;93095.38;5088169;28;20100;-72
2023/04/23 04:24:31;;;;;;;14.48;8.45;;;;;;;4.08;100.00;93090.75;5088426;28;20416;-72
2023/04/23 04:26:58;;;;;;;12.45;8.23;;;;;;;4.12;100.00;93094.53;5079531;28;20052;-72
2023/04/23 04:29:27;;;;;;;24.63;9.70;;;;;;;4.18;100.00;93093.84;5073909;28;20446;-73
2023/04/23 04:31:54;;;;;;;13.40;8.27;;;;;;;4.19;100.00;93095.41;5077656;28;20504;-72
2023/04/23 04:34:21;;;;;;;16.00;8.57;;;;;;;4.34;100.00;93094.63;5061255;28;20129;-72
2023/04/23 04:36:47;;;;;;;13.20;8.10;;;;;;;4.39;100.00;93097.44;5084674;28;20513;-72
2023/04/23 04:39:14;;;;;;;16.92;9.70;;;;;;;4.20;100.00;93071.56;5061123;28;20052;-73
2023/04/23 04:41:42;;;;;;;19.88;13.73;;;;;;;4.51;100.00;93100.34;5074476;28;20052;-72
2023/04/23 04:44:09;;;;;;;22.23;15.40;;;;;;;4.62;100.00;93105.00;5081766;28;20129;-72
2023/04/23 04:46:39;;;;;;;28.83;21.42;;;;;;;4.70;100.00;93109.22;5081163;28;20089;-72
2023/04/23 04:49:07;;;;;;;23.50;16.83;;;;;;;4.77;100.00;93106.75;5087710;28;20044;-73
2023/04/23 04:51:34;;;;;;;16.90;13.93;;;;;;;4.85;100.00;93111.75;5087431;28;20083;-72
2023/04/23 04:54:00;;;;;;;19.63;15.15;;;;;;;4.95;100.00;93108.91;5087802;28;20446;-72
2023/04/23 04:56:27;;;;;;;23.77;15.68;;;;;;;5.07;100.00;93109.28;5087349;28;20443;-72
2023/04/23 04:58:54;;;;;;;22.27;14.60;;;;;;;5.12;100.00;93109.53;5087204;28;20176;-72
2023/04/23 05:01:22;;;;;;;16.15;12.75;;;;;;;5.26;100.00;93110.47;5082013;28;20543;-72
2023/04/23 05:03:50;;;;;;;19.20;13.38;;;;;;;5.43;100.00;93103.41;5087128;28;20050;-73
2023/04/23 05:06:17;;;;;;;17.02;11.68;;;;;;;5.63;100.00;93110.44;5086851;28;20044;-73
2023/04/23 05:08:46;;;;;;;16.40;10.55;;;;;;;5.82;100.00;93111.59;5087256;28;20093;-73
2023/04/23 05:11:13;;;;;;;11.18;8.13;;;;;;;5.96;100.00;93106.59;5087048;28;20040;-73
2023/04/23 05:13:40;;;;;;;11.93;7.97;;;;;;;6.04;100.00;93105.72;5086664;28;20052;-73
2023/04/23 05:16:08;;;;;;;13.30;8.48;;;;;;;6.23;100.00;93112.75;5087377;28;20050;-73
2023/04/23 05:18:35;;;;;;;11.70;8.90;;;;;;;6.41;100.00;93116.59;5086502;28;20061;-73
2023/04/23 05:21:03;;;;;;;11.45;8.25;;;;;;;6.59;100.00;93123.78;5087343;28;20416;-73
2023/04/23 05:23:30;;;;;;;12.40;9.10;;;;;;;6.61;100.00;93109.06;5086602;28;20101;-73
2023/04/23 05:25:57;;;;;;;11.63;7.90;;;;;;;6.87;100.00;93117.06;5086880;28;20134;-73
2023/04/23 05:28:24;;;;;;;11.05;7.88;;;;;;;7.03;100.00;93114.19;5086795;28;20044;-72
2023/04/23 05:30:51;;;;;;;12.00;8.45;;;;;;;7.18;100.00;93123.50;5086733;28;21011;-72
2023/04/23 05:33:18;;;;;;;12.13;8.50;;;;;;;7.35;100.00;93121.38;5086726;28;20094;-73
2023/04/23 05:35:45;;;;;;;13.60;10.27;;;;;;;7.61;100.00;93130.91;5078284;28;20507;-73
2023/04/23 05:38:13;;;;;;;18.02;13.52;;;;;;;7.59;100.00;93130.31;5081695;28;20097;-73
2023/04/23 05:40:40;;;;;;;14.05;9.40;;;;;;;7.55;100.00;93134.22;5086501;28;20492;-73
2023/04/23 05:43:07;;;;;;;19.10;15.00;;;;;;;7.59;100.00;93122.63;5087074;28;20044;-74
2023/04/23 05:45:33;;;;;;;25.25;17.60;;;;;;;7.65;100.00;93131.31;5087025;28;20496;-74
2023/04/23 05:48:00;;;;;;;24.25;15.98;;;;;;;7.88;100.00;93122.50;5086204;28;20128;-74
2023/04/23 05:50:27;;;;;;;26.90;16.88;;;;;;;7.86;100.00;93115.03;5087007;28;20044;-73
2023/04/23 05:52:53;;;;;;;23.67;14.25;;;;;;;8.00;100.00;93126.06;5086620;28;20546;-74
2023/04/23 05:55:22;;;;;;;25.45;15.27;;;;;;;7.96;100.00;93134.31;5079736;28;20454;-74
2023/04/23 05:57:49;;;;;;;28.02;16.15;;;;;;;8.10;100.00;93115.44;5086387;28;20043;-74
2023/04/23 06:00:16;;;;;;;26.65;16.58;;;;;;;8.12;100.00;93128.84;5086918;28;20093;-74
2023/04/23 06:02:43;;;;;;;27.50;14.27;;;;;;;8.21;100.00;93119.19;5086181;28;20346;-73
2023/04/23 06:05:10;;;;;;;21.90;13.20;;;;;;;8.33;100.00;93133.94;5086859;28;20044;-73
2023/04/23 06:07:37;;;;;;;18.98;11.73;;;;;;;8.45;100.00;93123.88;5086472;28;20040;-73
2023/04/23 06:10:04;;;;;;;20.25;11.45;;;;;;;8.81;100.00;93125.25;5086667;28;20094;-73
2023/04/23 06:12:32;;;;;;;24.50;13.98;;;;;;;9.01;100.00;93132.88;5086012;28;20127;-73
2023/04/23 06:14:59;;;;;;;19.10;12.40;;;;;;;9.18;100.00;93127.31;5086446;28;20096;-73
2023/04/23 06:17:26;;;;;;;18.30;9.82;;;;;;;9.35;100.00;93128.44;5086389;28;20208;-74
2023/04/23 06:19:52;;;;;;;17.13;9.55;;;;;;;9.75;100.00;93127.47;5086379;28;20089;-73
2023/04/23 06:22:19;;;;;;;15.57;9.30;;;;;;;9.91;100.00;93122.84;5086708;28;20094;-74
2023/04/23 06:24:46;;;;;;;14.60;7.50;;;;;;;10.16;95.30;93125.44;5087920;28;20075;-74
2023/04/23 06:27:13;;;;;;;27.15;7.57;;;;;;;9.86;98.05;93127.78;5089926;28;20052;-73
2023/04/23 06:29:41;;;;;;;17.75;8.52;;;;;;;10.23;98.55;93129.72;5089868;28;20113;-72
2023/04/23 06:32:08;;;;;;;53.38;12.18;;;;;;;10.29;98.57;93134.78;5090152;28;20056;-73
2023/04/23 06:34:34;;;;;;;75.10;16.52;;;;;;;10.49;100.00;93127.94;5087630;28;20097;-73
2023/04/23 06:37:01;;;;;;;103.55;20.70;;;;;;;10.90;97.83;93126.59;5070153;28;20049;-73
2023/04/23 06:39:28;;;;;;;96.28;19.92;;;;;;;10.53;100.00;93127.34;5083281;28;20044;-73
2023/04/23 06:41:55;;;;;;;53.83;15.60;;;;;;;10.72;100.00;93122.22;5089547;28;20089;-72
2023/04/23 06:44:22;;;;;;;52.80;13.20;;;;;;;11.23;99.24;93132.38;5087725;28;20131;-73
2023/04/23 06:46:50;;;;;;;51.95;16.35;;;;;;;11.56;95.96;93132.97;5088502;28;20516;-73
2023/04/23 06:49:16;;;;;;;57.03;15.43;;;;;;;12.02;93.43;93117.91;5089675;28;20044;-73
2023/04/23 06:51:43;;;;;;;61.53;16.17;;;;;;;12.05;90.74;93124.44;5063359;28;20040;-73
2023/04/23 06:54:10;;;;;;;53.60;14.30;;;;;;;12.40;89.09;93124.50;5089777;28;20048;-73
2023/04/23 06:56:37;;;;;;;44.75;12.27;;;;;;;12.17;88.60;93125.25;5062945;28;20036;-72
2023/04/23 06:59:03;;;;;;;44.63;13.00;;;;;;;12.56;86.15;93130.00;5089393;28;20117;-72
2023/04/23 07:01:30;;;;;;;50.20;12.77;;;;;;;12.64;85.33;93124.50;5063038;28;20044;-72
2023/04/23 07:03:58;;;;;;;52.22;13.38;;;;;;;13.02;86.43;93134.56;5089083;28;20439;-72
2023/04/23 07:06:26;;;;;;;47.53;14.85;;;;;;;13.38;84.83;93126.78;5089403;28;20077;-73
2023/04/23 07:08:53;;;;;;;42.70;11.05;;;;;;;12.03;86.86;93106.59;5089105;28;20052;-73
2023/04/23 07:11:20;;;;;;;40.30;12.55;;;;;;;12.07;88.90;93122.44;5089548;28;20097;-73
2023/04/23 07:13:46;;;;;;;39.90;10.82;;;;;;;12.77;90.64;93118.34;5089535;28;20044;-73
2023/04/23 07:16:14;;;;;;;29.33;9.15;;;;;;;13.36;86.58;93122.63;5089120;28;20052;-73
2023/04/23 07:18:40;;;;;;;20.75;7.00;;;;;;;13.25;81.01;93126.03;5089048;28;20066;-72
2023/04/23 07:21:08;;;;;;;22.42;7.00;;;;;;;13.00;83.44;93121.13;5089216;28;20048;-73
2023/04/23 07:23:35;;;;;;;14.48;6.10;;;;;;;13.04;81.98;93123.03;5089544;28;20040;-73
2023/04/23 07:26:02;;;;;;;26.25;8.07;;;;;;;13.18;83.26;93121.00;5089075;28;20052;-73
2023/04/23 07:28:29;;;;;;;20.42;7.53;;;;;;;13.65;81.66;93121.88;5089048;28;20044;-73
2023/04/23 07:30:56;;;;;;;30.00;9.27;;;;;;;13.38;79.75;93119.81;5088770;28;20352;-73
2023/04/23 07:33:23;;;;;;;20.98;7.95;;;;;;;13.90;80.40;93124.13;5075686;28;20044;-73
2023/04/23 07:35:51;;;;;;;32.17;7.97;;;;;;;14.00;78.66;93120.16;5077939;28;20076;-74
2023/04/23 07:38:19;;;;;;;32.83;9.30;;;;;;;13.57;80.76;93120.44;5076027;28;20056;-74
2023/04/23 07:40:46;;;;;;;28.00;9.88;;;;;;;13.24;83.44;93111.53;5088677;28;20102;-74
2023/04/23 07:43:13;;;;;;;30.67;13.52;;;;;;;13.59;80.94;93109.91;5089791;28;20051;-74
2023/04/23 07:45:40;;;;;;;23.75;6.70;;;;;;;13.22;80.29;93108.41;5088826;28;20101;-74
2023/04/23 07:48:07;;;;;;;21.88;7.85;;;;;;;13.46;80.32;93111.75;5088768;28;20097;-74
2023/04/23 07:50:33;;;;;;;32.53;9.70;;;;;;;13.86;81.55;93107.56;5089138;28;20048;-74
2023/04/23 07:53:00;;;;;;;38.75;16.83;;;;;;;13.94;77.49;93119.31;5088232;28;20109;-74
2023/04/23 07:55:28;;;;;;;18.25;6.05;;;;;;;13.95;76.79;93099.41;5074654;28;20036;-73
2023/04/23 07:57:55;;;;;;;11.73;5.28;;;;;;;14.28;76.15;93115.97;5088408;28;20052;-73
2023/04/23 08:00:22;;;;;;;12.55;6.07;;;;;;;14.88;78.46;93107.78;5088522;28;20040;-74
2023/04/23 08:02:50;;;;;;;12.18;5.20;;;;;;;15.28;73.41;93105.94;5088531;28;20496;-74
2023/04/23 08:05:17;;;;;;;14.43;5.70;;;;;;;15.81;72.10;93111.44;5088336;28;20060;-74
2023/04/23 08:07:43;;;;;;;20.25;6.90;;;;;;;15.62;73.07;93114.38;5088587;28;20571;-74
2023/04/23 08:10:10;;;;;;;20.10;6.63;;;;;;;15.67;71.98;93113.63;5088617;28;20497;-74
2023/04/23 08:12:39;;;;;;;17.08;5.40;;;;;;;15.84;69.24;93116.09;5088180;28;20112;-73
2023/04/23 08:15:06;;;;;;;15.90;5.22;;;;;;;16.31;69.35;93101.00;5087750;28;20511;-73
2023/04/23 08:17:33;;;;;;;21.58;6.15;;;;;;;16.73;66.74;93093.50;5076961;28;20447;-75
2023/04/23 08:20:00;;;;;;;30.60;7.40;;;;;;;16.52;64.36;93104.50;5086055;28;20139;-74
2023/04/23 08:22:26;;;;;;;19.10;6.95;;;;;;;16.55;67.41;93098.84;5088158;28;20048;-74
2023/04/23 08:24:53;;;;;;;21.92;6.18;;;;;;;16.51;64.69;93105.56;5088318;28;20043;-74
2023/04/23 08:27:20;;;;;;;14.98;5.90;;;;;;;15.81;65.82;93111.44;5081680;28;20090;-74
2023/04/23 08:29:48;;;;;;;19.00;6.00;;;;;;;15.47;65.52;93114.97;5084488;28;21009;-74
2023/04/23 08:32:15;;;;;;;15.75;6.05;;;;;;;15.15;64.90;93107.09;5088265;28;20109;-73
2023/04/23 08:34:42;;;;;;;24.42;5.80;;;;;;;15.70;66.05;93102.00;5086994;28;20052;-74
2023/04/23 08:37:08;;;;;;;15.85;6.38;;;;;;;16.03;68.89;93090.66;5067786;28;20485;-74
2023/04/23 08:39:35;;;;;;;18.42;4.75;;;;;;;16.76;65.36;93093.75;5085176;28;20044;-74
2023/04/23 08:42:07;;;;;;;26.40;6.13;;;;;;;17.19;58.52;93095.56;5087297;28;20883;-74
2023/04/23 08:44:36;;;;;;;19.02;8.73;;;;;;;16.22;58.74;93099.88;5087254;28;20043;-75
2023/04/23 08:47:05;;;;;;;16.63;5.82;;;;;;;16.78;62.44;93085.75;5087299;28;20052;-74
2023/04/23 08:49:34;;;;;;;16.58;4.80;;;;;;;17.41;60.14;93090.19;5086394;28;20050;-74
2023/04/23 08:52:08;;;;;;;16.30;4.95;;;;;;;17.86;58.65;93080.16;5087795;28;20138;-74
2023/04/23 08:54:41;;;;;;;10.32;3.80;;;;;;;17.82;52.90;93088.75;5062137;28;20048;-74
2023/04/23 08:57:09;;;;;;;10.00;3.78;;;;;;;17.26;53.46;93084.97;5086775;28;20456;-75
2023/04/23 08:59:37;;;;;;;11.85;3.45;;;;;;;17.85;54.39;93080.41;5087724;28;20417;-73
2023/04/23 09:02:08;;;;;;;11.63;3.50;;;;;;;18.40;55.31;93072.94;5087155;28;20112;-73
2023/04/23 09:04:35;;;;;;;11.50;3.20;;;;;;;18.77;50.46;93076.25;5087162;28;20493;-73
2023/04/23 09:07:03;;;;;;;11.55;3.10;;;;;;;18.79;47.13;93076.78;5087241;28;20043;-73
2023/04/23 09:09:30;;;;;;;14.02;3.08;;;;;;;17.80;48.44;93057.03;5087612;28;20094;-73
2023/04/23 09:11:57;;;;;;;12.63;3.67;;;;;;;17.57;48.41;93066.88;5086747;28;20156;-73
2023/04/23 09:14:25;;;;;;;13.95;3.33;;;;;;;17.85;51.48;93068.22;5076906;28;20048;-72
2023/04/23 09:16:53;;;;;;;11.13;3.67;;;;;;;17.25;46.93;93071.19;5083562;28;20550;-73
2023/04/23 09:19:21;;;;;;;8.10;2.92;;;;;;;16.86;44.65;93066.31;5086961;28;20051;-75
2023/04/23 09:21:48;;;;;;;23.25;10.77;;;;;;;16.44;48.60;93071.28;5086517;28;20047;-73
2023/04/23 09:24:16;;;;;;;15.25;4.43;;;;;;;16.70;51.96;93061.84;5081252;28;20043;-74
2023/04/23 09:26:48;;;;;;;12.23;5.03;;;;;;;17.43;51.43;93063.97;5086188;28;20133;-74
2023/04/23 09:29:17;;;;;;;11.27;3.67;;;;;;;17.67;47.71;93035.72;5086888;28;20070;-74
2023/04/23 09:32:14;;;;;;;6.82;3.42;;;;;;;18.17;47.36;93030.06;5087341;28;20050;-74
2023/04/23 09:34:45;;;;;;;7.78;3.40;;;;;;;18.38;46.73;93056.81;5081783;28;20055;-74
2023/04/23 09:37:20;;;;;;;6.97;3.33;;;;;;;18.63;47.94;93046.63;5080941;28;20058;-74
2023/04/23 09:42:48;;;;;;;7.93;2.75;;;;;;;19.00;45.02;93034.28;5085058;28;20060;-74
2023/04/23 09:45:15;;;;;;;11.02;3.33;;;;;;;19.16;45.60;93043.63;5088025;28;20092;-74
2023/04/23 09:47:49;;;;;;;9.38;3.40;;;;;;;19.66;47.11;93039.47;5087442;28;20071;-74
2023/04/23 09:50:17;;;;;;;8.90;4.03;;;;;;;20.16;46.02;93037.56;5087063;28;20869;-74
2023/04/23 09:52:44;;;;;;;6.85;3.05;;;;;;;20.28;39.85;93031.97;5086756;28;20454;-74
2023/04/23 09:55:13;;;;;;;4.35;2.70;;;;;;;19.77;39.67;92949.75;5086072;28;20916;-74
2023/04/23 09:57:41;;;;;;;10.18;2.95;;;;;;;20.69;42.73;93025.59;5086736;28;20093;-74
2023/04/23 10:00:15;;;;;;;6.80;2.80;;;;;;;21.01;43.73;93018.22;5088569;28;20040;-74
2023/04/23 10:02:46;;;;;;;5.80;2.60;;;;;;;21.31;43.95;93016.31;5090869;28;20044;-74
2023/04/23 10:05:19;;;;;;;7.63;3.60;;;;;;;21.11;42.68;92996.44;5065909;28;20048;-74
2023/04/23 10:07:47;;;;;;;8.80;3.85;;;;;;;20.55;41.69;93016.88;5090904;28;20051;-74
2023/04/23 10:10:14;;;;;;;11.15;3.17;;;;;;;19.52;44.32;92989.81;5090472;28;20050;-73
2023/04/23 10:12:42;;;;;;;8.77;3.58;;;;;;;18.62;46.58;93006.84;5090742;28;20048;-73
2023/04/23 10:15:10;;;;;;;6.10;2.97;;;;;;;18.77;45.26;93005.22;5091007;28;20085;-74
2023/04/23 10:17:37;;;;;;;11.48;3.75;;;;;;;18.68;45.04;92992.78;5090291;28;20117;-74
2023/04/23 10:20:06;;;;;;;5.60;2.97;;;;;;;18.11;46.17;93011.09;5090541;28;20056;-74
2023/04/23 10:22:35;;;;;;;9.73;4.60;;;;;;;18.22;47.82;92995.47;5090788;28;20052;-73
2023/04/23 10:25:07;;;;;;;9.82;3.22;;;;;;;18.52;44.76;92992.03;5089992;28;20052;-73
2023/04/23 10:27:38;;;;;;;9.13;3.55;;;;;;;18.23;45.22;92963.25;5089909;28;20056;-73
2023/04/23 10:30:06;;;;;;;6.78;3.17;;;;;;;18.58;43.20;92992.81;5090147;28;20048;-73
2023/04/23 10:32:34;;;;;;;10.80;3.95;;;;;;;18.68;43.85;92986.78;5090756;28;20101;-73
2023/04/23 10:35:01;;;;;;;12.90;3.90;;;;;;;18.93;44.26;92979.94;5087371;28;20094;-73
2023/04/23 10:37:28;;;;;;;27.27;18.70;;;;;;;18.65;45.82;92975.09;5069838;28;20110;-73
2023/04/23 10:40:03;;;;;;;9.57;4.70;;;;;;;18.16;48.58;92979.09;5089878;28;20047;-74
2023/04/23 10:42:30;;;;;;;15.15;5.97;;;;;;;18.02;46.42;92981.44;5090289;28;20093;-74
2023/04/23 10:44:58;;;;;;;9.77;4.10;;;;;;;17.85;46.41;92963.50;5090257;28;20090;-73
2023/04/23 10:47:25;;;;;;;6.95;3.10;;;;;;;17.98;50.01;92975.19;5090168;28;20044;-73
2023/04/23 10:49:51;;;;;;;6.53;3.63;;;;;;;17.70;49.87;92962.47;5090085;28;20048;-73
2023/04/23 10:52:20;;;;;;;12.05;5.57;;;;;;;17.58;48.34;92957.53;5089457;28;20044;-73
2023/04/23 10:54:49;;;;;;;16.50;6.85;;;;;;;17.33;46.41;92959.09;5089751;28;20496;-74
2023/04/23 10:57:18;;;;;;;11.35;4.28;;;;;;;17.39;47.50;92959.84;5089772;28;20048;-78
2023/04/23 10:59:52;;;;;;;8.98;4.70;;;;;;;17.59;48.06;92953.13;5079794;28;20052;-73
2023/04/23 11:02:19;;;;;;;9.63;4.03;;;;;;;17.98;47.61;92937.00;5087292;28;20040;-73
2023/04/23 11:04:53;;;;;;;7.70;3.72;;;;;;;18.58;45.83;92958.97;5089831;28;20043;-73
2023/04/23 11:07:20;;;;;;;7.63;3.42;;;;;;;19.34;46.95;92948.50;5089397;28;20164;-73
2023/04/23 11:09:47;;;;;;;7.18;3.40;;;;;;;19.44;43.40;92926.03;5089788;28;20701;-74
2023/04/23 11:12:30;;;;;;;5.97;3.20;;;;;;;19.40;42.81;92951.06;5088256;28;20044;-74
2023/04/23 11:14:59;;;;;;;6.03;3.55;;;;;;;19.80;41.21;92940.63;5079510;28;20052;-74
2023/04/23 11:18:00;;;;;;;6.78;3.72;;;;;;;19.46;38.71;92955.97;5080477;28;20096;-74
2023/04/23 11:20:26;;;;;;;5.93;2.63;;;;;;;19.56;37.76;92955.13;5062985;28;20043;-74
2023/04/23 11:22:53;;;;;;;8.00;2.60;;;;;;;19.76;35.65;92938.53;5088810;28;20048;-74
2023/04/23 11:25:21;;;;;;;4.63;2.40;;;;;;;20.14;33.99;92947.63;5062878;28;20069;-74
2023/04/23 11:27:49;;;;;;;3.45;2.28;;;;;;;20.05;37.33;92929.22;5088808;28;20044;-74
2023/04/23 11:30:19;;;;;;;3.90;2.45;;;;;;;20.21;37.69;92937.66;5084192;28;20048;-74
2023/04/23 11:32:47;;;;;;;5.75;3.15;;;;;;;19.73;37.41;92938.31;5081277;28;20450;-74